Time;durP1;ratioP1;P1;durP2;ratioP2;P2;SDS_P1;SDS_P2;PMS_P1;PMS_P2;Temp;Humidity;BMP_temperature;BMP_pressure;BME280_temperature;BME280_humidity;BME280_pressure;Samples;Min_cycle;Max_cycle;Signal;HPM_P1;HPM_P2
2023/04/21 00:01:12;;;;;;;28.17;18.92;;;8.90;99.90;;;;;;5066183;28;20104;-80
2023/04/21 00:03:41;;;;;;;28.77;19.77;;;8.90;99.90;;;;;;5065551;28;20047;-80
2023/04/21 00:06:11;;;;;;;28.17;18.98;;;8.90;99.90;;;;;;5080948;28;20032;-81
2023/04/21 00:08:39;;;;;;;28.40;18.83;;;8.90;99.90;;;;;;5065665;28;20067;-80
2023/04/21 00:11:08;;;;;;;27.83;18.73;;;8.90;99.90;;;;;;5065854;28;20044;-81
2023/04/21 00:13:35;;;;;;;27.83;18.40;;;9.00;99.90;;;;;;5069849;28;20108;-82
2023/04/21 00:16:02;;;;;;;30.08;18.50;;;9.00;99.90;;;;;;5080322;28;20911;-83
2023/04/21 00:18:28;;;;;;;25.60;18.15;;;8.90;99.90;;;;;;5077909;28;20048;-80
2023/04/21 00:20:54;;;;;;;26.48;17.58;;;8.90;99.90;;;;;;5084017;28;20279;-83
2023/04/21 00:23:20;;;;;;;26.65;17.63;;;8.90;99.90;;;;;;5068218;28;20066;-82
2023/04/21 00:25:45;;;;;;;30.15;18.70;;;8.90;99.90;;;;;;5066162;28;20839;-83
2023/04/21 00:28:11;;;;;;;24.60;18.08;;;8.90;99.90;;;;;;5068200;28;20067;-81
2023/04/21 00:30:37;;;;;;;25.80;17.73;;;8.90;99.90;;;;;;5049933;28;20040;-81
2023/04/21 00:33:04;;;;;;;25.80;18.20;;;8.70;99.90;;;;;;5078131;28;20048;-82
2023/04/21 00:35:30;;;;;;;25.17;17.88;;;8.90;99.90;;;;;;5079007;28;20044;-81
2023/04/21 00:37:56;;;;;;;27.92;17.45;;;8.90;99.90;;;;;;5081275;28;20074;-84
2023/04/21 00:40:22;;;;;;;24.73;17.33;;;8.90;99.90;;;;;;5069160;28;20395;-83
2023/04/21 00:42:47;;;;;;;26.83;16.75;;;8.90;99.90;;;;;;5064995;28;20058;-82
2023/04/21 00:45:16;;;;;;;23.45;16.85;;;8.80;99.90;;;;;;5081531;28;20387;-81
2023/04/21 00:47:42;;;;;;;25.70;15.60;;;8.80;99.90;;;;;;5080143;28;20050;-84
2023/04/21 00:50:09;;;;;;;28.15;15.88;;;8.80;99.90;;;;;;5080512;28;20052;-76
2023/04/21 00:52:36;;;;;;;23.58;15.20;;;8.80;99.90;;;;;;5053383;28;20035;-77
2023/04/21 00:55:02;;;;;;;26.65;16.15;;;8.80;99.90;;;;;;5055467;28;20374;-79
2023/04/21 00:57:28;;;;;;;22.42;15.70;;;8.80;99.90;;;;;;5081574;28;20040;-74
2023/04/21 00:59:54;;;;;;;24.50;15.98;;;8.80;99.90;;;;;;5082341;28;20048;-83
2023/04/21 01:02:22;;;;;;;25.38;15.50;;;8.80;99.90;;;;;;5051081;28;20050;-86
2023/04/21 01:04:48;;;;;;;23.65;15.50;;;8.80;99.90;;;;;;5057932;28;20390;-81
2023/04/21 01:07:14;;;;;;;22.63;14.80;;;8.80;99.90;;;;;;5074093;28;20120;-76
2023/04/21 01:09:40;;;;;;;22.23;14.25;;;8.80;99.90;;;;;;5065643;28;20253;-76
2023/04/21 01:12:10;;;;;;;20.02;13.40;;;8.80;99.90;;;;;;5080547;28;20536;-77
2023/04/21 01:14:38;;;;;;;28.65;14.25;;;8.80;99.90;;;;;;5079431;28;20109;-77
2023/04/21 01:17:04;;;;;;;21.75;13.40;;;8.70;99.90;;;;;;5084195;28;20105;-75
2023/04/21 01:19:39;;;;;;;19.52;12.77;;;8.70;99.90;;;;;;5071483;28;20043;-78
2023/04/21 01:22:12;;;;;;;19.23;13.25;;;8.70;99.90;;;;;;5069854;28;20048;-79
2023/04/21 01:24:42;;;;;;;24.90;13.30;;;8.70;99.90;;;;;;5072791;28;20051;-81
2023/04/21 01:27:19;;;;;;;17.85;12.82;;;8.70;99.90;;;;;;5072186;28;20117;-78
2023/04/21 01:29:48;;;;;;;21.17;14.05;;;8.60;99.90;;;;;;5084912;28;20505;-75
2023/04/21 01:32:16;;;;;;;18.73;12.57;;;8.60;99.90;;;;;;5071777;28;21492;-78
2023/04/21 01:34:44;;;;;;;21.35;13.48;;;8.60;99.90;;;;;;5072542;28;20055;-78
2023/04/21 01:37:11;;;;;;;20.42;13.52;;;8.60;99.90;;;;;;5086679;28;20047;-77
2023/04/21 01:39:38;;;;;;;21.98;13.93;;;8.60;99.90;;;;;;5071331;28;20054;-81
2023/04/21 01:42:05;;;;;;;22.25;13.20;;;8.60;99.90;;;;;;5065753;28;20036;-81
2023/04/21 01:44:31;;;;;;;23.27;13.88;;;8.60;99.90;;;;;;5067599;28;20047;-81
2023/04/21 01:46:59;;;;;;;22.55;13.27;;;8.50;99.90;;;;;;5084415;28;20059;-76
2023/04/21 01:49:25;;;;;;;24.05;14.43;;;8.50;99.90;;;;;;5084148;28;20373;-75
2023/04/21 01:51:51;;;;;;;24.58;13.93;;;8.50;99.90;;;;;;5072257;28;20513;-79
2023/04/21 01:54:17;;;;;;;22.52;13.38;;;8.50;99.90;;;;;;5066215;28;20096;-76
2023/04/21 01:56:43;;;;;;;22.08;13.93;;;8.50;99.90;;;;;;5075748;28;20233;-78
2023/04/21 01:59:08;;;;;;;24.75;14.82;;;8.50;99.90;;;;;;5084861;28;20047;-77
2023/04/21 02:01:35;;;;;;;23.08;13.82;;;8.50;99.90;;;;;;5086423;28;20180;-77
2023/04/21 02:04:04;;;;;;;23.45;14.23;;;8.50;99.90;;;;;;5072434;28;20124;-79
2023/04/21 02:06:30;;;;;;;21.25;13.32;;;8.50;99.90;;;;;;5085741;28;20044;-73
2023/04/21 02:08:57;;;;;;;21.77;14.00;;;8.50;99.90;;;;;;5053517;28;20089;-75
2023/04/21 02:11:24;;;;;;;22.65;13.75;;;7.30;99.90;;;;;;5086149;28;20818;-75
2023/04/21 02:13:55;;;;;;;22.52;13.73;;;8.40;99.90;;;;;;5084273;28;20067;-79
2023/04/21 02:16:26;;;;;;;22.63;14.40;;;8.40;99.90;;;;;;5072756;28;20060;-79
2023/04/21 02:18:57;;;;;;;24.98;14.65;;;8.40;99.90;;;;;;5085666;28;20505;-77
2023/04/21 02:21:23;;;;;;;22.55;14.30;;;8.40;99.90;;;;;;5081554;28;20476;-78
2023/04/21 02:23:50;;;;;;;19.08;13.88;;;8.40;99.90;;;;;;5081305;28;20043;-85
2023/04/21 02:26:16;;;;;;;25.25;13.85;;;8.30;99.90;;;;;;5087568;28;20567;-83
2023/04/21 02:28:42;;;;;;;20.88;13.70;;;8.30;99.90;;;;;;5083454;28;20047;-79
2023/04/21 02:31:08;;;;;;;19.95;13.68;;;8.40;99.90;;;;;;5065589;28;20044;-79
2023/04/21 02:33:35;;;;;;;20.67;13.82;;;8.30;99.90;;;;;;5081109;28;20044;-77
2023/04/21 02:36:01;;;;;;;20.10;13.07;;;8.30;99.90;;;;;;5085424;28;20104;-79
2023/04/21 02:38:27;;;;;;;19.85;13.25;;;8.30;99.90;;;;;;5070652;28;20044;-78
2023/04/21 02:40:58;;;;;;;25.15;14.63;;;8.30;99.90;;;;;;5086528;28;20047;-82
2023/04/21 02:43:23;;;;;;;21.50;14.25;;;8.30;99.90;;;;;;5069476;28;20083;-82
2023/04/21 02:45:51;;;;;;;27.75;14.65;;;8.30;99.90;;;;;;5063748;28;20097;-83
2023/04/21 02:48:24;;;;;;;18.50;13.63;;;8.30;99.90;;;;;;5080177;28;20868;-83
2023/04/21 02:50:51;;;;;;;22.02;14.00;;;8.20;99.90;;;;;;5066590;28;20032;-85
2023/04/21 02:53:21;;;;;;;22.27;13.90;;;8.30;99.90;;;;;;5053356;28;21083;-83
2023/04/21 02:55:46;;;;;;;22.05;14.18;;;8.20;99.90;;;;;;5082093;28;20505;-84
2023/04/21 02:58:15;;;;;;;21.20;13.75;;;8.30;99.90;;;;;;5087627;28;20056;-85
2023/04/21 03:00:45;;;;;;;20.13;13.52;;;8.30;99.90;;;;;;5081787;28;20856;-84
2023/04/21 03:03:11;;;;;;;20.17;13.60;;;8.20;99.90;;;;;;5070208;28;20067;-85
2023/04/21 03:05:36;;;;;;;21.80;13.82;;;8.30;99.90;;;;;;5068513;28;20127;-80
2023/04/21 03:08:04;;;;;;;23.52;13.93;;;8.30;99.90;;;;;;5079783;28;20048;-80
2023/04/21 03:10:30;;;;;;;20.80;13.48;;;8.20;99.90;;;;;;5069304;28;20088;-79
2023/04/21 03:12:55;;;;;;;24.45;13.13;;;8.20;99.90;;;;;;5080681;28;20044;-79
2023/04/21 03:15:21;;;;;;;20.70;13.77;;;8.20;99.90;;;;;;5067604;28;20659;-79
2023/04/21 03:17:47;;;;;;;19.50;13.73;;;8.20;99.90;;;;;;5064389;28;20047;-83
2023/04/21 03:20:15;;;;;;;20.65;14.18;;;8.20;99.90;;;;;;5081870;28;20048;-82
2023/04/21 03:22:41;;;;;;;21.17;13.65;;;8.10;99.90;;;;;;5071603;28;20051;-81
2023/04/21 03:25:10;;;;;;;21.42;13.57;;;8.10;99.90;;;;;;5084449;28;20869;-81
2023/04/21 03:27:36;;;;;;;20.95;13.68;;;8.10;99.90;;;;;;5075126;28;20046;-80
2023/04/21 03:30:02;;;;;;;24.63;14.40;;;8.10;99.90;;;;;;5085220;28;20478;-82
2023/04/21 03:32:28;;;;;;;19.73;12.95;;;8.10;99.90;;;;;;5079227;28;20040;-80
2023/04/21 03:34:54;;;;;;;19.63;13.15;;;8.10;99.90;;;;;;5077110;28;20051;-80
2023/04/21 03:37:21;;;;;;;20.77;13.50;;;8.10;99.90;;;;;;5078859;28;20058;-80
2023/04/21 03:39:47;;;;;;;23.63;13.90;;;8.00;99.90;;;;;;5080924;28;20931;-80
2023/04/21 03:42:13;;;;;;;25.23;14.98;;;8.00;99.90;;;;;;5051541;28;20509;-78
2023/04/21 03:44:41;;;;;;;19.98;13.63;;;8.00;99.90;;;;;;5065690;28;20372;-80
2023/04/21 03:47:11;;;;;;;19.45;13.43;;;9.10;99.90;;;;;;5066961;28;20032;-78
2023/04/21 03:49:37;;;;;;;18.83;13.98;;;8.00;99.90;;;;;;5077591;28;20044;-76
2023/04/21 03:52:03;;;;;;;25.42;14.68;;;8.00;99.90;;;;;;5078450;28;20047;-81
2023/04/21 03:54:29;;;;;;;23.52;14.10;;;8.00;99.90;;;;;;5071822;28;20054;-79
2023/04/21 03:56:56;;;;;;;20.17;13.68;;;8.00;99.90;;;;;;5081128;28;20052;-78
2023/04/21 03:59:22;;;;;;;19.58;12.85;;;8.00;99.90;;;;;;5059802;28;20484;-78
2023/04/21 04:01:47;;;;;;;22.67;14.30;;;8.00;99.90;;;;;;5077048;28;20059;-79
2023/04/21 04:04:15;;;;;;;22.05;12.80;;;8.00;99.90;;;;;;5082908;28;20047;-78
2023/04/21 04:06:40;;;;;;;20.95;13.82;;;8.00;99.90;;;;;;5080766;28;20126;-81
2023/04/21 04:09:12;;;;;;;22.08;14.38;;;8.00;99.90;;;;;;5079395;28;20393;-80
2023/04/21 04:11:38;;;;;;;22.42;14.88;;;8.00;99.90;;;;;;5062192;28;20032;-79
2023/04/21 04:14:06;;;;;;;23.55;14.27;;;8.00;99.90;;;;;;5051577;28;20043;-79
2023/04/21 04:16:35;;;;;;;19.95;13.93;;;8.10;99.90;;;;;;5054165;28;20040;-81
2023/04/21 04:19:04;;;;;;;23.40;14.07;;;8.10;99.90;;;;;;5068679;28;20375;-77
2023/04/21 04:21:31;;;;;;;18.75;13.52;;;8.10;99.90;;;;;;5065206;28;20520;-81
2023/04/21 04:23:57;;;;;;;20.95;13.57;;;8.10;99.90;;;;;;5066828;28;20528;-80
2023/04/21 04:26:24;;;;;;;19.63;14.10;;;8.10;99.90;;;;;;5063090;28;20536;-78
2023/04/21 04:28:51;;;;;;;18.85;14.15;;;8.10;99.90;;;;;;5066577;28;20911;-79
2023/04/21 04:31:18;;;;;;;22.02;14.35;;;8.10;99.90;;;;;;5079658;28;20074;-77
2023/04/21 04:33:44;;;;;;;21.02;13.90;;;8.20;99.90;;;;;;5067909;28;20500;-78
2023/04/21 04:36:13;;;;;;;22.92;14.38;;;8.10;99.90;;;;;;5078714;28;20215;-77
2023/04/21 04:38:40;;;;;;;20.02;13.40;;;8.20;99.90;;;;;;5066813;28;20055;-77
2023/04/21 04:41:07;;;;;;;22.60;14.18;;;8.20;99.90;;;;;;5080126;28;20059;-77
2023/04/21 04:43:37;;;;;;;21.52;13.75;;;8.10;99.90;;;;;;5064931;28;20059;-79
2023/04/21 04:46:11;;;;;;;20.33;13.48;;;8.10;99.90;;;;;;5083389;28;20052;-77
2023/04/21 04:48:40;;;;;;;20.08;13.95;;;8.10;99.90;;;;;;5100536;27;20045;-77
2023/04/21 04:51:06;;;;;;;26.58;13.23;;;8.10;99.90;;;;;;5082655;28;20048;-78
2023/04/21 04:53:32;;;;;;;20.17;13.48;;;8.10;99.90;;;;;;5084204;28;20052;-78
2023/04/21 04:55:58;;;;;;;19.98;14.07;;;8.10;99.90;;;;;;5067887;28;20089;-77
2023/04/21 04:58:24;;;;;;;20.40;13.70;;;8.10;99.90;;;;;;5083164;28;20067;-78
2023/04/21 05:00:53;;;;;;;20.92;13.70;;;8.10;99.90;;;;;;5082626;28;20806;-76
2023/04/21 05:03:19;;;;;;;19.85;12.27;;;8.00;99.90;;;;;;5081040;28;20036;-77
2023/04/21 05:05:45;;;;;;;18.23;12.50;;;8.00;99.90;;;;;;5083370;28;20039;-77
2023/04/21 05:08:11;;;;;;;21.67;12.93;;;8.00;99.90;;;;;;5084749;28;21023;-77
2023/04/21 05:10:36;;;;;;;17.88;14.07;;;8.00;99.90;;;;;;5089401;28;20039;-83
2023/04/21 05:13:02;;;;;;;24.10;13.73;;;7.70;99.90;;;;;;5065194;28;20096;-81
2023/04/21 05:15:28;;;;;;;20.73;13.48;;;8.10;99.90;;;;;;5047752;28;20122;-81
2023/04/21 05:17:55;;;;;;;18.08;12.77;;;8.00;99.90;;;;;;5069964;28;20074;-82
2023/04/21 05:20:21;;;;;;;19.35;12.40;;;8.00;99.90;;;;;;5070223;28;20162;-78
2023/04/21 05:22:53;;;;;;;16.60;11.85;;;8.00;99.90;;;;;;5055280;28;20242;-76
2023/04/21 05:25:18;;;;;;;17.63;12.68;;;8.00;99.90;;;;;;5058054;28;20498;-77
2023/04/21 05:27:44;;;;;;;20.10;12.82;;;8.00;99.90;;;;;;5055636;28;21478;-77
2023/04/21 05:30:10;;;;;;;17.25;12.23;;;8.10;99.90;;;;;;5085288;28;20122;-82
2023/04/21 05:32:37;;;;;;;21.25;12.43;;;8.10;99.90;;;;;;5099606;27;20090;-81
2023/04/21 05:35:04;;;;;;;16.30;11.52;;;8.10;99.90;;;;;;5085436;28;20094;-81
2023/04/21 05:37:30;;;;;;;18.02;12.55;;;8.10;99.90;;;;;;5068484;28;20535;-82
2023/04/21 05:39:56;;;;;;;17.40;11.73;;;8.10;99.90;;;;;;5082172;28;20051;-81
2023/04/21 05:42:23;;;;;;;19.60;12.20;;;8.20;99.90;;;;;;5079329;28;20989;-80
2023/04/21 05:44:49;;;;;;;18.05;11.63;;;8.20;99.90;;;;;;5082200;28;20232;-80
2023/04/21 05:47:14;;;;;;;20.00;12.07;;;8.20;99.90;;;;;;5067975;28;20600;-80
2023/04/21 05:49:41;;;;;;;17.55;11.93;;;8.30;99.90;;;;;;5077175;28;20078;-81
2023/04/21 05:52:09;;;;;;;19.50;11.82;;;8.30;99.90;;;;;;5064304;28;20418;-80
2023/04/21 05:54:35;;;;;;;16.90;11.32;;;8.40;99.90;;;;;;5061353;28;20067;-80
2023/04/21 05:57:02;;;;;;;18.45;12.85;;;8.40;99.90;;;;;;5081575;28;20597;-81
2023/04/21 05:59:35;;;;;;;17.50;11.75;;;8.50;99.90;;;;;;5063550;28;20286;-80
2023/04/21 06:02:02;;;;;;;17.85;11.93;;;8.60;99.90;;;;;;5070922;28;20090;-81
2023/04/21 06:04:28;;;;;;;16.35;11.38;;;8.60;99.90;;;;;;5079005;28;20055;-78
2023/04/21 06:06:54;;;;;;;18.90;11.82;;;8.60;99.90;;;;;;5076871;28;20055;-79
2023/04/21 06:09:23;;;;;;;18.95;12.07;;;9.30;99.90;;;;;;5087861;28;20511;-79
2023/04/21 06:11:49;;;;;;;19.67;11.57;;;8.70;99.90;;;;;;5074622;28;20119;-80
2023/04/21 06:14:15;;;;;;;18.70;11.35;;;8.80;99.90;;;;;;5077840;28;20051;-80
2023/04/21 06:16:41;;;;;;;17.67;11.57;;;8.80;99.90;;;;;;5090775;28;20151;-80
2023/04/21 06:19:06;;;;;;;14.63;10.48;;;8.90;99.90;;;;;;5076456;28;20048;-80
2023/04/21 06:21:35;;;;;;;20.17;11.25;;;9.00;99.90;;;;;;5087779;28;20758;-79
2023/04/21 06:24:01;;;;;;;16.52;10.77;;;8.90;99.90;;;;;;5062377;28;20123;-80
2023/04/21 06:26:27;;;;;;;14.18;10.50;;;9.10;99.90;;;;;;5088029;28;20203;-82
2023/04/21 06:28:54;;;;;;;17.40;11.18;;;9.10;99.90;;;;;;5057130;28;20331;-80
2023/04/21 06:31:20;;;;;;;14.88;10.52;;;9.20;99.90;;;;;;5090572;28;20051;-83
2023/04/21 06:33:46;;;;;;;18.08;11.13;;;9.30;99.90;;;;;;5089788;28;20039;-82
2023/04/21 06:36:11;;;;;;;16.10;11.32;;;9.40;99.90;;;;;;5076597;28;20043;-84
2023/04/21 06:38:40;;;;;;;18.40;10.50;;;9.40;99.90;;;;;;5091143;28;20047;-83
2023/04/21 06:41:06;;;;;;;14.35;10.35;;;9.50;99.90;;;;;;5094629;28;20087;-83
2023/04/21 06:43:32;;;;;;;16.55;9.98;;;9.60;99.90;;;;;;5089702;28;20075;-74
2023/04/21 06:45:58;;;;;;;15.77;10.13;;;9.70;99.90;;;;;;5079313;28;20092;-80
2023/04/21 06:48:28;;;;;;;14.43;10.40;;;9.80;99.90;;;;;;5073691;28;20048;-79
2023/04/21 06:50:54;;;;;;;18.65;10.50;;;9.90;99.90;;;;;;5088215;28;20048;-77
2023/04/21 06:53:20;;;;;;;14.95;10.10;;;10.00;99.90;;;;;;5084902;28;20040;-79
2023/04/21 06:55:47;;;;;;;16.98;10.32;;;10.20;99.90;;;;;;5088143;28;20051;-78
2023/04/21 06:58:14;;;;;;;18.15;10.45;;;10.20;99.90;;;;;;5104769;27;20100;-76
2023/04/21 07:00:41;;;;;;;16.98;9.52;;;10.40;99.90;;;;;;5086386;28;20069;-79
2023/04/21 07:03:13;;;;;;;14.85;10.13;;;10.50;99.90;;;;;;5122288;27;20134;-80
2023/04/21 07:05:41;;;;;;;14.32;10.13;;;10.60;99.90;;;;;;5067442;28;20051;-77
2023/04/21 07:08:07;;;;;;;14.57;9.63;;;10.80;99.90;;;;;;5081673;28;20047;-82
2023/04/21 07:10:32;;;;;;;12.70;9.27;;;10.90;99.90;;;;;;5075061;28;20088;-74
2023/04/21 07:12:59;;;;;;;15.60;9.32;;;11.10;99.90;;;;;;5089864;27;20143;-78
2023/04/21 07:15:24;;;;;;;16.98;10.23;;;11.20;99.90;;;;;;5086966;28;20051;-76
2023/04/21 07:17:50;;;;;;;13.38;9.43;;;11.40;99.90;;;;;;5065550;28;20036;-78
2023/04/21 07:20:17;;;;;;;16.00;9.25;;;11.50;99.90;;;;;;5078056;28;20143;-78
2023/04/21 07:22:43;;;;;;;13.68;9.13;;;11.70;99.90;;;;;;5082532;27;20058;-74
2023/04/21 07:25:09;;;;;;;12.15;8.85;;;11.90;99.90;;;;;;5092974;27;21066;-79
2023/04/21 07:27:36;;;;;;;13.63;9.48;;;12.00;99.90;;;;;;5092333;27;20054;-77
2023/04/21 07:30:03;;;;;;;18.85;9.80;;;12.20;99.90;;;;;;5076851;27;20043;-74
2023/04/21 07:32:30;;;;;;;14.88;9.32;;;12.30;99.90;;;;;;5072522;27;20043;-77
2023/04/21 07:34:55;;;;;;;14.45;8.73;;;12.50;99.90;;;;;;5071286;27;20062;-77
2023/04/21 07:37:21;;;;;;;13.00;9.32;;;12.60;99.90;;;;;;5056845;27;20293;-74
2023/04/21 07:39:47;;;;;;;14.07;8.95;;;12.70;99.90;;;;;;5067437;27;20047;-77
2023/04/21 07:42:12;;;;;;;13.93;8.80;;;12.80;99.90;;;;;;5055262;27;20121;-78
2023/04/21 07:44:38;;;;;;;16.45;8.55;;;12.70;99.90;;;;;;5065288;27;20044;-76
2023/04/21 07:47:04;;;;;;;14.95;8.77;;;12.80;99.90;;;;;;5062925;27;20096;-74
2023/04/21 07:49:30;;;;;;;12.48;8.65;;;12.80;99.90;;;;;;5067221;27;20580;-74
2023/04/21 07:51:56;;;;;;;13.02;8.68;;;12.60;99.90;;;;;;5067399;27;20054;-79
2023/04/21 07:54:22;;;;;;;13.57;8.95;;;12.80;99.90;;;;;;5068050;27;20043;-75
2023/04/21 07:56:48;;;;;;;13.57;8.52;;;12.80;99.90;;;;;;5087058;27;20054;-77
2023/04/21 07:59:13;;;;;;;13.23;8.75;;;12.80;99.90;;;;;;5097488;27;20078;-78
2023/04/21 08:01:39;;;;;;;16.00;9.27;;;12.90;99.90;;;;;;5081148;28;20078;-74
2023/04/21 08:04:08;;;;;;;13.32;9.25;;;13.00;99.90;;;;;;5110759;27;20062;-76
2023/04/21 08:06:34;;;;;;;15.82;9.10;;;13.10;99.90;;;;;;5117380;27;20047;-77
2023/04/21 08:08:59;;;;;;;12.85;8.57;;;13.20;99.90;;;;;;5083447;28;20085;-75
2023/04/21 08:11:29;;;;;;;13.57;8.95;;;13.30;99.90;;;;;;5072444;28;20374;-75
2023/04/21 08:13:58;;;;;;;11.75;9.00;;;13.50;99.90;;;;;;5082671;28;20042;-75
2023/04/21 08:16:24;;;;;;;13.63;9.25;;;13.70;99.90;;;;;;5083540;28;20303;-76
2023/04/21 08:18:50;;;;;;;14.82;8.55;;;13.90;99.90;;;;;;5115262;27;20768;-76
2023/04/21 08:21:15;;;;;;;15.35;8.98;;;14.00;99.90;;;;;;5113772;27;20043;-76
2023/04/21 08:23:41;;;;;;;14.02;9.55;;;14.20;99.90;;;;;;5082968;28;20130;-76
2023/04/21 08:26:08;;;;;;;13.88;8.65;;;14.40;99.90;;;;;;5064306;28;20532;-79
2023/04/21 08:28:34;;;;;;;12.20;8.98;;;14.80;99.90;;;;;;5070735;28;20051;-76
2023/04/21 08:31:01;;;;;;;13.05;8.93;;;15.10;99.90;;;;;;5063442;28;20047;-74
2023/04/21 08:33:27;;;;;;;12.35;8.18;;;15.30;99.90;;;;;;5098055;28;20126;-78
2023/04/21 08:35:52;;;;;;;13.60;8.82;;;15.30;99.90;;;;;;5081245;28;20707;-77
2023/04/21 08:38:18;;;;;;;12.93;8.70;;;15.40;99.90;;;;;;5083174;28;20039;-77
2023/04/21 08:40:44;;;;;;;15.38;8.50;;;15.30;99.90;;;;;;5069420;28;20051;-76
2023/04/21 08:43:10;;;;;;;13.60;8.80;;;15.30;99.90;;;;;;5086126;28;20058;-75
2023/04/21 08:45:38;;;;;;;13.57;8.90;;;15.30;99.90;;;;;;5097814;28;20062;-75
2023/04/21 08:48:05;;;;;;;14.80;9.45;;;15.30;99.90;;;;;;5106201;28;20047;-75
2023/04/21 08:50:34;;;;;;;14.18;9.38;;;15.30;99.90;;;;;;5068740;28;20986;-73
2023/04/21 08:52:59;;;;;;;16.85;9.07;;;15.20;99.90;;;;;;5099068;28;20048;-75
2023/04/21 08:55:28;;;;;;;11.85;8.52;;;15.30;99.90;;;;;;5082071;28;20054;-76
2023/04/21 08:57:54;;;;;;;12.38;8.63;;;15.40;99.90;;;;;;5118561;27;20058;-77
2023/04/21 09:00:20;;;;;;;13.98;9.55;;;15.40;99.90;;;;;;5114858;27;20059;-74
2023/04/21 09:03:00;;;;;;;13.13;9.10;;;15.40;99.90;;;;;;5115138;27;20696;-78
2023/04/21 09:05:31;;;;;;;11.95;8.73;;;15.40;99.90;;;;;;5081495;28;20513;-74
2023/04/21 09:08:13;;;;;;;18.60;9.30;;;15.40;99.90;;;;;;5115285;27;20820;-74
2023/04/21 09:10:50;;;;;;;13.93;8.68;;;15.50;99.90;;;;;;5064562;28;20040;-74
2023/04/21 09:13:17;;;;;;;12.27;9.00;;;15.50;99.90;;;;;;5056277;28;20429;-76
2023/04/21 09:15:51;;;;;;;13.35;8.77;;;15.60;99.90;;;;;;5116672;27;20060;-74
2023/04/21 09:18:21;;;;;;;19.10;9.40;;;15.70;99.90;;;;;;5117365;27;20044;-76
2023/04/21 09:21:11;;;;;;;13.73;10.00;;;15.90;99.90;;;;;;5080332;28;20055;-74
2023/04/21 09:23:41;;;;;;;12.20;8.32;;;16.10;99.90;;;;;;5066009;28;20051;-79
2023/04/21 09:26:07;;;;;;;13.20;8.88;;;16.20;99.90;;;;;;5099111;28;20051;-79
2023/04/21 09:28:33;;;;;;;13.93;9.45;;;16.50;99.90;;;;;;5110849;27;20133;-75
2023/04/21 09:30:59;;;;;;;16.52;9.77;;;16.70;99.90;;;;;;5080386;28;21113;-79
2023/04/21 09:33:25;;;;;;;16.77;10.20;;;16.90;99.90;;;;;;5089857;27;20055;-78
2023/04/21 09:35:51;;;;;;;15.40;9.32;;;17.20;99.90;;;;;;5104046;27;20054;-76
2023/04/21 09:38:21;;;;;;;13.40;9.90;;;17.50;99.90;;;;;;5064924;28;20097;-77
2023/04/21 09:40:58;;;;;;;15.95;9.52;;;17.70;99.90;;;;;;5086730;28;20288;-75
2023/04/21 09:43:25;;;;;;;14.63;9.32;;;18.00;99.90;;;;;;5084792;28;20383;-76
2023/04/21 09:45:54;;;;;;;14.18;9.13;;;18.40;99.90;;;;;;5079932;28;20189;-74
2023/04/21 09:48:23;;;;;;;14.05;9.35;;;18.50;99.90;;;;;;5113343;27;20505;-76
2023/04/21 09:50:49;;;;;;;11.50;8.98;;;18.50;99.90;;;;;;5089839;28;20494;-75
2023/04/21 09:53:20;;;;;;;13.77;9.30;;;18.70;99.90;;;;;;5123299;27;20101;-76
2023/04/21 09:55:50;;;;;;;15.75;9.07;;;18.80;99.90;;;;;;5092470;28;20046;-76
2023/04/21 09:58:21;;;;;;;14.50;9.35;;;18.80;99.90;;;;;;5089334;28;20136;-77
2023/04/21 10:00:48;;;;;;;15.68;9.75;;;18.80;99.90;;;;;;5090924;28;20625;-76
2023/04/21 10:03:18;;;;;;;11.45;9.10;;;18.90;99.90;;;;;;5092803;28;20069;-74
2023/04/21 10:05:47;;;;;;;14.68;9.05;;;18.90;99.90;;;;;;5122045;27;20047;-76
2023/04/21 10:08:16;;;;;;;15.63;8.90;;;18.80;99.90;;;;;;5101637;27;20316;-74
2023/04/21 10:10:43;;;;;;;14.27;8.90;;;18.80;99.90;;;;;;5069042;28;20059;-75
2023/04/21 10:13:16;;;;;;;14.50;8.50;;;18.80;99.90;;;;;;5081646;28;20052;-73
2023/04/21 10:15:41;;;;;;;12.60;8.65;;;18.70;99.90;;;;;;5074918;28;20054;-75
2023/04/21 10:18:24;;;;;;;16.80;9.43;;;18.60;99.90;;;;;;5083096;28;20047;-76
2023/04/21 10:21:00;;;;;;;10.65;7.97;;;18.60;99.90;;;;;;5082971;28;20047;-73
2023/04/21 10:23:35;;;;;;;11.77;8.80;;;18.60;99.90;;;;;;5083290;28;20513;-76
2023/04/21 10:26:33;;;;;;;12.05;8.13;;;18.70;99.90;;;;;;5116030;27;20076;-76
2023/04/21 10:29:01;;;;;;;12.25;9.00;;;18.70;99.90;;;;;;5114705;27;20143;-76
2023/04/21 10:31:48;;;;;;;10.52;8.23;;;18.70;99.90;;;;;;5075073;28;20047;-77
2023/04/21 10:34:15;;;;;;;13.15;8.32;;;18.70;99.90;;;;;;5119891;27;20052;-75
2023/04/21 10:36:45;;;;;;;14.65;8.23;;;18.70;99.90;;;;;;5074285;28;20044;-76
2023/04/21 10:39:24;;;;;;;11.07;8.20;;;18.60;99.90;;;;;;5113533;27;20040;-78
2023/04/21 10:41:50;;;;;;;13.60;8.73;;;18.50;99.90;;;;;;5074745;28;20142;-75
2023/04/21 10:44:17;;;;;;;12.68;8.35;;;18.40;99.90;;;;;;5098178;27;20130;-77
2023/04/21 10:46:51;;;;;;;14.93;7.95;;;18.20;99.90;;;;;;5122196;27;20043;-76
2023/04/21 10:49:24;;;;;;;16.02;8.60;;;18.30;99.90;;;;;;5112237;27;20059;-77
2023/04/21 10:52:02;;;;;;;9.98;8.50;;;18.30;99.90;;;;;;5106623;27;20044;-73
2023/04/21 10:55:11;;;;;;;14.43;8.70;;;18.30;99.90;;;;;;5074517;28;20051;-75
2023/04/21 10:57:39;;;;;;;13.48;8.98;;;18.50;99.90;;;;;;5107914;27;20073;-75
2023/04/21 11:00:06;;;;;;;13.27;8.27;;;18.90;99.90;;;;;;5122053;27;20488;-75
2023/04/21 11:02:33;;;;;;;11.98;8.93;;;19.30;99.90;;;;;;5105640;27;20056;-75
2023/04/21 11:05:00;;;;;;;13.90;8.68;;;19.30;99.90;;;;;;5094204;28;20070;-76
2023/04/21 11:07:26;;;;;;;13.60;8.50;;;19.30;99.90;;;;;;5075664;28;20054;-76
2023/04/21 11:10:06;;;;;;;14.38;8.85;;;19.20;99.90;;;;;;5077557;28;20047;-77
2023/04/21 11:12:40;;;;;;;11.82;8.15;;;18.90;99.90;;;;;;5108603;27;20044;-72
2023/04/21 11:15:12;;;;;;;11.75;7.47;;;18.70;99.90;;;;;;5125924;27;20462;-74
2023/04/21 11:17:42;;;;;;;13.73;8.23;;;18.60;99.90;;;;;;5076855;28;20667;-76
2023/04/21 11:20:08;;;;;;;12.38;7.75;;;18.60;99.90;;;;;;5092011;28;20505;-76
2023/04/21 11:22:36;;;;;;;13.30;8.13;;;19.00;99.90;;;;;;5126354;27;20075;-75
2023/04/21 11:25:02;;;;;;;12.57;8.43;;;18.80;99.90;;;;;;5124839;27;20039;-73
2023/04/21 11:27:29;;;;;;;15.70;8.45;;;18.90;99.90;;;;;;5103265;27;20056;-75
2023/04/21 11:29:56;;;;;;;13.88;8.00;;;19.00;99.90;;;;;;5123247;27;20627;-74
2023/04/21 11:32:22;;;;;;;13.63;8.35;;;19.40;99.90;;;;;;5124046;27;20090;-75
2023/04/21 11:34:48;;;;;;;14.13;8.93;;;19.10;99.90;;;;;;5090075;28;20044;-75
2023/04/21 11:37:23;;;;;;;11.90;8.43;;;19.10;99.90;;;;;;5082593;28;20852;-77
2023/04/21 11:39:49;;;;;;;10.48;8.48;;;19.00;99.90;;;;;;5078732;28;20074;-75
2023/04/21 11:42:21;;;;;;;11.30;7.85;;;18.80;99.90;;;;;;5125102;27;20574;-76
2023/04/21 11:44:47;;;;;;;19.25;8.85;;;18.70;99.90;;;;;;5087140;28;20047;-74
2023/04/21 11:47:15;;;;;;;11.63;8.32;;;18.60;99.90;;;;;;5087882;28;20140;-76
2023/04/21 11:49:54;;;;;;;14.90;9.35;;;18.50;99.90;;;;;;5118004;27;20052;-75
2023/04/21 11:52:36;;;;;;;11.85;8.25;;;18.50;99.90;;;;;;5087252;28;20040;-73
2023/04/21 11:55:20;;;;;;;10.88;8.25;;;18.60;99.90;;;;;;5093443;28;20177;-72
2023/04/21 11:57:46;;;;;;;13.65;8.35;;;18.60;99.90;;;;;;5098448;28;20234;-73
2023/04/21 12:00:15;;;;;;;15.00;8.85;;;18.80;99.90;;;;;;5122165;27;20043;-74
2023/04/21 12:02:54;;;;;;;13.77;9.20;;;19.00;99.90;;;;;;5075018;28;20036;-76
2023/04/21 12:05:19;;;;;;;12.02;8.52;;;19.00;99.90;;;;;;5089911;28;20450;-75
2023/04/21 12:07:51;;;;;;;9.88;7.90;;;19.00;99.90;;;;;;5088640;28;20126;-74
2023/04/21 12:10:20;;;;;;;11.68;8.02;;;19.10;99.90;;;;;;5085774;28;20044;-74
2023/04/21 12:12:48;;;;;;;15.18;8.43;;;19.00;99.90;;;;;;5088421;28;20051;-76
2023/04/21 12:15:20;;;;;;;12.77;9.50;;;19.00;99.90;;;;;;5084282;28;20048;-74
2023/04/21 12:17:51;;;;;;;12.88;8.77;;;19.00;99.90;;;;;;5109687;27;20521;-74
2023/04/21 12:20:18;;;;;;;13.57;8.82;;;19.00;99.90;;;;;;5076552;28;20380;-73
2023/04/21 12:22:45;;;;;;;14.05;8.40;;;19.00;99.90;;;;;;5104347;27;20047;-74
2023/04/21 12:25:16;;;;;;;15.98;8.80;;;19.00;99.90;;;;;;5095716;27;20062;-74
2023/04/21 12:28:02;;;;;;;10.73;7.93;;;19.00;99.90;;;;;;5069745;28;20035;-72
2023/04/21 12:30:27;;;;;;;9.90;7.50;;;18.90;99.90;;;;;;5088727;28;20385;-73
2023/04/21 12:32:54;;;;;;;13.27;7.93;;;18.90;99.90;;;;;;5084927;28;20071;-74
2023/04/21 12:35:22;;;;;;;12.35;7.85;;;18.90;99.90;;;;;;5090502;28;20101;-74
2023/04/21 12:37:47;;;;;;;12.30;8.30;;;19.00;99.90;;;;;;5118832;27;20385;-73
2023/04/21 12:40:13;;;;;;;11.63;7.95;;;19.10;99.90;;;;;;5091994;28;20051;-76